createdAt,value
2023-03-28T00:01:09.783Z,96300.40
2023-03-28T00:03:41.477Z,96312.95
2023-03-28T00:06:18.661Z,96315.35
2023-03-28T00:08:48.057Z,96318.27
2023-03-28T00:11:20.533Z,96306.86
2023-03-28T00:13:57.737Z,96317.07
2023-03-28T00:16:32.584Z,96332.61
2023-03-28T00:19:03.294Z,96322.48
2023-03-28T00:21:34.045Z,96320.48
2023-03-28T00:24:05.018Z,96325.74
2023-03-28T00:26:35.814Z,96340.23
2023-03-28T00:29:09.103Z,96340.73
2023-03-28T00:31:39.192Z,96333.72
2023-03-28T00:34:07.442Z,96343.27
2023-03-28T00:36:39.098Z,96358.34
2023-03-28T00:39:07.841Z,96349.21
2023-03-28T00:41:40.254Z,96365.77
2023-03-28T00:44:44.864Z,96357.61
2023-03-28T00:47:27.807Z,96354.36
2023-03-28T00:50:03.074Z,96359.44
2023-03-28T00:52:33.768Z,96358.43
2023-03-28T00:55:04.617Z,96374.84
2023-03-28T00:57:33.771Z,96356.27
2023-03-28T01:00:01.838Z,96362.63
2023-03-28T01:02:30.440Z,96373.81
2023-03-28T01:05:03.920Z,96365.94
2023-03-28T01:07:40.913Z,96361.70
2023-03-28T01:10:09.506Z,96366.34
2023-03-28T01:12:41.157Z,96367.70
2023-03-28T01:15:10.685Z,96361.09
2023-03-28T01:17:48.376Z,96365.42
2023-03-28T01:20:42.101Z,96362.39
2023-03-28T01:23:26.555Z,96368.75
2023-03-28T01:26:17.809Z,96382.23
2023-03-28T01:28:52.520Z,96378.55
2023-03-28T01:31:41.811Z,96390.98
2023-03-28T01:34:43.042Z,96378.81
2023-03-28T01:37:14.704Z,96383.98
2023-03-28T01:39:53.189Z,96394.33
2023-03-28T01:42:33.876Z,96413.45
2023-03-28T01:45:15.394Z,96396.21
2023-03-28T01:48:02.747Z,96417.05
2023-03-28T01:50:44.123Z,96404.87
2023-03-28T01:53:40.668Z,96406.78
2023-03-28T01:56:30.752Z,96416.02
2023-03-28T01:59:33.025Z,96420.88
2023-03-28T02:02:37.061Z,96424.04
2023-03-28T02:05:25.516Z,96434.02
2023-03-28T02:07:55.208Z,96429.73
2023-03-28T02:10:55.663Z,96432.33
2023-03-28T02:14:07.329Z,96448.70
2023-03-28T02:17:04.871Z,96459.60
2023-03-28T02:20:11.817Z,96464.73
2023-03-28T02:23:16.098Z,96466.55
2023-03-28T02:26:03.102Z,96466.88
2023-03-28T02:28:53.843Z,96470.35
2023-03-28T02:31:46.554Z,96474.60
2023-03-28T02:34:14.511Z,96474.21
2023-03-28T02:37:01.593Z,96483.92
2023-03-28T02:39:48.246Z,96482.66
2023-03-28T02:42:31.578Z,96512.17
2023-03-28T02:45:22.728Z,96494.91
2023-03-28T02:48:12.646Z,96510.13
2023-03-28T02:50:49.972Z,96517.08
2023-03-28T02:53:27.565Z,96524.29
2023-03-28T02:56:04.866Z,96509.93
2023-03-28T02:59:29.784Z,96527.70
2023-03-28T03:01:57.926Z,96519.61
2023-03-28T03:04:26.008Z,96533.88
2023-03-28T03:06:54.686Z,96544.75
2023-03-28T03:09:23.114Z,96542.27
2023-03-28T03:11:51.165Z,96554.80
2023-03-28T03:14:19.235Z,96559.41
2023-03-28T03:16:49.007Z,96564.28
2023-03-28T03:19:20.212Z,96560.63
2023-03-28T03:21:49.662Z,96568.70
2023-03-28T03:24:17.783Z,96559.42
2023-03-28T03:26:45.840Z,96565.55
2023-03-28T03:29:17.500Z,96582.36
2023-03-28T03:31:46.336Z,96586.11
2023-03-28T03:34:43.561Z,96605.01
2023-03-28T03:37:11.638Z,96593.16
2023-03-28T03:39:40.002Z,96598.23
2023-03-28T03:42:07.973Z,96599.78
2023-03-28T03:44:36.996Z,96608.35
2023-03-28T03:47:06.512Z,96615.59
2023-03-28T03:49:34.926Z,96629.80
2023-03-28T03:52:04.635Z,96654.80
2023-03-28T03:54:32.674Z,96636.61
2023-03-28T03:57:02.950Z,96643.42
2023-03-28T03:59:33.146Z,96657.00
2023-03-28T04:02:01.777Z,96663.66
2023-03-28T04:04:50.605Z,96660.35
2023-03-28T04:07:23.566Z,96673.73
2023-03-28T04:09:53.376Z,96664.69
2023-03-28T04:12:22.201Z,96662.52
2023-03-28T04:14:51.988Z,96673.64
2023-03-28T04:17:41.515Z,96683.23
2023-03-28T04:20:21.529Z,96680.80
2023-03-28T04:23:05.932Z,96685.77
2023-03-28T04:25:34.620Z,96695.60
2023-03-28T04:28:08.478Z,96700.08
2023-03-28T04:30:39.437Z,96697.52
2023-03-28T04:33:49.727Z,96700.55
2023-03-28T04:36:19.075Z,96717.77
2023-03-28T04:38:53.171Z,96716.84
2023-03-28T04:41:40.873Z,96723.14
2023-03-28T04:44:46.966Z,96745.67
2023-03-28T04:47:16.084Z,96741.09
2023-03-28T04:49:44.122Z,96749.62
2023-03-28T04:52:12.341Z,96768.09
2023-03-28T04:54:43.748Z,96768.63
2023-03-28T04:57:18.156Z,96773.04
2023-03-28T04:59:48.760Z,96784.91
2023-03-28T05:02:27.122Z,96788.86
2023-03-28T05:05:04.071Z,96786.46
2023-03-28T05:07:40.921Z,96793.06
2023-03-28T05:10:10.754Z,96794.84
2023-03-28T05:12:41.474Z,96795.58
2023-03-28T05:15:09.859Z,96797.58
2023-03-28T05:17:47.434Z,96808.80
2023-03-28T05:20:26.870Z,96807.29
2023-03-28T05:22:57.405Z,96819.23
2023-03-28T05:25:26.269Z,96823.55
2023-03-28T05:27:56.500Z,96829.73
2023-03-28T05:30:25.355Z,96834.28
2023-03-28T05:32:56.676Z,96844.37
2023-03-28T05:35:27.120Z,96839.65
2023-03-28T05:37:55.386Z,96846.92
2023-03-28T05:40:23.845Z,96845.86
2023-03-28T05:42:52.750Z,96844.52
2023-03-28T05:45:22.676Z,96851.31
2023-03-28T05:48:01.426Z,96864.48
2023-03-28T05:50:31.771Z,96850.65
2023-03-28T05:53:04.861Z,96839.16
2023-03-28T05:55:35.559Z,96846.23
2023-03-28T05:58:05.362Z,96850.70
2023-03-28T06:00:38.570Z,96859.81
2023-03-28T06:03:08.134Z,96857.89
2023-03-28T06:05:40.040Z,96867.02
2023-03-28T06:08:15.782Z,96863.51
2023-03-28T06:10:44.551Z,96866.59
2023-03-28T06:13:20.075Z,96882.70
2023-03-28T06:15:48.913Z,96880.73
2023-03-28T06:18:18.700Z,96888.08
2023-03-28T06:20:48.048Z,96906.89
2023-03-28T06:23:16.702Z,96915.86
2023-03-28T06:25:45.387Z,96907.90
2023-03-28T06:28:15.268Z,96915.42
2023-03-28T06:31:02.309Z,96911.52
2023-03-28T06:33:31.360Z,96916.23
2023-03-28T06:35:59.679Z,96918.57
2023-03-28T06:38:30.619Z,96922.19
2023-03-28T06:40:59.334Z,96923.39
2023-03-28T06:43:27.543Z,96947.15
2023-03-28T06:46:10.257Z,96931.65
2023-03-28T06:48:43.395Z,96964.98
2023-03-28T06:51:26.808Z,96962.08
2023-03-28T06:53:56.259Z,96958.01
2023-03-28T06:56:30.396Z,96967.13
2023-03-28T06:58:59.247Z,96978.73
2023-03-28T07:01:28.557Z,96988.55
2023-03-28T07:04:10.503Z,97011.98
2023-03-28T07:06:39.145Z,97013.61
2023-03-28T07:09:07.281Z,97025.43
2023-03-28T07:11:41.764Z,97029.09
2023-03-28T07:14:11.545Z,97028.69
2023-03-28T07:16:40.016Z,97038.08
2023-03-28T07:19:08.599Z,97041.44
2023-03-28T07:21:38.205Z,97049.70
2023-03-28T07:24:08.006Z,97053.27
2023-03-28T07:26:54.855Z,97064.08
2023-03-28T07:29:30.171Z,97065.52
2023-03-28T07:31:58.420Z,97060.58
2023-03-28T07:34:26.935Z,97072.86
2023-03-28T07:36:56.190Z,97069.48
2023-03-28T07:39:49.283Z,97075.17
2023-03-28T07:42:19.923Z,97106.34
2023-03-28T07:44:48.106Z,97077.83
2023-03-28T07:47:18.434Z,97071.63
2023-03-28T07:49:47.357Z,97073.61
2023-03-28T07:52:15.787Z,97076.00
2023-03-28T07:54:46.472Z,97081.22
2023-03-28T07:57:14.994Z,97086.58
2023-03-28T08:00:09.316Z,97069.16
2023-03-28T08:02:44.823Z,97072.19
2023-03-28T08:05:15.458Z,97085.67
2023-03-28T08:07:46.509Z,97078.98
2023-03-28T08:10:15.252Z,97073.93
2023-03-28T08:12:45.018Z,97068.41
2023-03-28T08:15:13.548Z,97082.17
2023-03-28T08:17:42.183Z,97095.70
2023-03-28T08:20:11.942Z,97080.21
2023-03-28T08:23:07.589Z,97094.42
2023-03-28T08:25:45.095Z,97108.47
2023-03-28T08:28:15.363Z,97084.98
2023-03-28T08:30:44.540Z,97089.02
2023-03-28T08:33:12.944Z,97091.45
2023-03-28T08:35:42.292Z,97098.75
2023-03-28T08:38:20.428Z,97099.41
2023-03-28T08:41:04.093Z,97122.16
2023-03-28T08:44:03.737Z,97114.79
2023-03-28T08:46:35.916Z,97156.41
2023-03-28T08:49:10.990Z,97128.28
2023-03-28T08:51:47.784Z,97132.23
2023-03-28T08:54:22.303Z,97125.50
2023-03-28T08:56:57.493Z,97118.92
2023-03-28T08:59:29.442Z,97149.48
2023-03-28T09:01:57.732Z,97146.30
2023-03-28T09:04:32.048Z,97146.91
2023-03-28T09:08:00.452Z,97143.08
2023-03-28T09:10:38.621Z,97142.55
2023-03-28T09:13:27.434Z,97146.40
2023-03-28T09:16:46.611Z,97170.05
2023-03-28T09:19:47.142Z,97170.21
2023-03-28T09:23:00.704Z,97164.34
2023-03-28T09:25:56.329Z,97156.83
2023-03-28T09:28:44.942Z,97155.83
2023-03-28T09:31:18.373Z,97172.02
2023-03-28T09:33:50.782Z,97160.16
2023-03-28T09:36:45.290Z,97167.16
2023-03-28T09:39:44.334Z,97170.39
2023-03-28T09:42:32.231Z,97177.34
2023-03-28T09:45:32.584Z,97172.27
2023-03-28T09:48:02.106Z,97163.02
2023-03-28T09:50:33.496Z,97174.09
2023-03-28T09:53:03.856Z,97175.02
2023-03-28T09:55:35.526Z,97179.30
2023-03-28T09:58:12.482Z,97169.52
2023-03-28T10:01:42.031Z,97176.84
2023-03-28T10:04:14.588Z,97154.65
2023-03-28T10:07:11.296Z,97159.66
2023-03-28T10:09:55.225Z,97172.77
2023-03-28T10:12:36.320Z,97157.73
2023-03-28T10:15:11.084Z,97184.35
2023-03-28T10:18:01.391Z,97189.92
2023-03-28T10:20:38.472Z,97181.88
2023-03-28T10:23:07.204Z,97184.63
2023-03-28T10:25:40.388Z,97182.41
2023-03-28T10:28:15.341Z,97183.05
2023-03-28T10:30:53.777Z,97186.02
2023-03-28T10:34:01.906Z,97197.48
2023-03-28T10:36:54.048Z,97208.16
2023-03-28T10:39:31.143Z,97228.04
2023-03-28T10:42:20.050Z,97201.57
2023-03-28T10:45:01.481Z,97224.38
2023-03-28T10:47:32.289Z,97197.63
2023-03-28T10:50:36.643Z,97218.44
2023-03-28T10:53:12.557Z,97211.15
2023-03-28T10:55:54.043Z,97215.55
2023-03-28T10:58:39.763Z,97207.27
2023-03-28T11:01:20.850Z,97199.86
2023-03-28T11:04:24.704Z,97209.33
2023-03-28T11:07:12.745Z,97201.06
2023-03-28T11:10:07.469Z,97224.02
2023-03-28T11:13:27.155Z,97223.00
2023-03-28T11:16:04.335Z,97214.73
2023-03-28T11:18:50.655Z,97203.85
2023-03-28T11:21:44.195Z,97224.52
2023-03-28T11:24:40.992Z,97218.15
2023-03-28T11:28:43.144Z,97227.80
2023-03-28T11:31:38.048Z,97214.94
2023-03-28T11:34:46.397Z,97223.50
2023-03-28T11:37:23.473Z,97224.35
2023-03-28T11:40:14.186Z,97214.19
2023-03-28T11:43:00.316Z,97220.39
2023-03-28T11:45:50.142Z,97216.77
2023-03-28T11:48:26.666Z,97211.65
2023-03-28T11:51:17.714Z,97215.01
2023-03-28T11:54:30.994Z,97224.79
2023-03-28T11:57:21.333Z,97222.63
2023-03-28T12:00:05.554Z,97237.84
2023-03-28T12:02:48.171Z,97232.71
2023-03-28T12:05:36.768Z,97232.71
2023-03-28T12:08:32.535Z,97239.83
2023-03-28T12:11:08.364Z,97229.82
2023-03-28T12:14:11.119Z,97229.57
2023-03-28T12:16:49.048Z,97226.73
2023-03-28T12:19:30.565Z,97257.31
2023-03-28T12:22:09.409Z,97254.14
2023-03-28T12:25:08.088Z,97246.54
2023-03-28T12:28:05.643Z,97240.52
2023-03-28T12:30:36.907Z,97238.88
2023-03-28T12:33:23.289Z,97269.05
2023-03-28T12:36:26.360Z,97329.89
2023-03-28T12:39:01.543Z,97280.77
2023-03-28T12:41:40.339Z,97265.83
2023-03-28T12:44:14.000Z,97254.16
2023-03-28T12:47:03.291Z,97251.40
2023-03-28T12:49:45.956Z,97257.50
2023-03-28T12:52:23.572Z,97240.69
2023-03-28T12:54:59.718Z,97236.02
2023-03-28T12:57:42.698Z,97243.19
2023-03-28T13:00:42.684Z,97234.93
2023-03-28T13:04:07.714Z,97248.55
2023-03-28T13:07:23.649Z,97249.05
2023-03-28T13:10:02.149Z,97295.21
2023-03-28T13:13:00.490Z,97283.72
2023-03-28T13:15:38.538Z,97285.80
2023-03-28T13:18:22.162Z,97271.08
2023-03-28T13:20:52.476Z,97264.94
2023-03-28T13:23:31.696Z,97273.90
2023-03-28T13:26:04.084Z,97272.02
2023-03-28T13:28:43.453Z,97261.98
2023-03-28T13:31:22.154Z,97278.34
2023-03-28T13:33:58.857Z,97277.83
2023-03-28T13:36:38.019Z,97265.21
2023-03-28T13:39:28.926Z,97279.58
2023-03-28T13:42:02.289Z,97279.07
2023-03-28T13:44:42.914Z,97291.34
2023-03-28T13:47:23.783Z,97297.55
2023-03-28T13:50:01.066Z,97309.34
2023-03-28T13:52:35.493Z,97303.77
2023-03-28T13:55:25.680Z,97310.80
2023-03-28T13:57:54.259Z,97314.64
2023-03-28T14:00:27.483Z,97315.64
2023-03-28T14:03:47.876Z,97313.51
2023-03-28T14:06:22.719Z,97300.64
2023-03-28T14:08:59.887Z,97316.78
2023-03-28T14:11:36.715Z,97330.46
2023-03-28T14:14:19.024Z,97328.23
2023-03-28T14:16:47.282Z,97335.52
2023-03-28T14:19:21.761Z,97362.73
2023-03-28T14:21:53.344Z,97354.20
2023-03-28T14:24:25.714Z,97344.35
2023-03-28T14:27:07.418Z,97354.48
2023-03-28T14:29:37.288Z,97353.54
2023-03-28T14:32:30.580Z,97346.08
2023-03-28T14:35:22.573Z,97341.48
2023-03-28T14:37:56.549Z,97343.54
2023-03-28T14:40:25.862Z,97338.46
2023-03-28T14:43:19.048Z,97330.63
2023-03-28T14:45:54.484Z,97333.97
2023-03-28T14:48:28.376Z,97334.37
2023-03-28T14:51:00.516Z,97333.35
2023-03-28T14:53:36.716Z,97333.09
2023-03-28T14:56:29.986Z,97334.22
2023-03-28T14:59:02.656Z,97337.27
2023-03-28T15:01:34.034Z,97340.77
2023-03-28T15:04:07.082Z,97343.77
2023-03-28T15:06:37.146Z,97341.03
2023-03-28T15:09:17.019Z,97351.88
2023-03-28T15:11:47.281Z,97355.07
2023-03-28T15:14:27.345Z,97353.63
2023-03-28T15:16:57.812Z,97362.59
2023-03-28T15:19:33.996Z,97373.98
2023-03-28T15:22:13.773Z,97367.52
2023-03-28T15:24:42.110Z,97366.48
2023-03-28T15:27:23.241Z,97367.58
2023-03-28T15:29:51.686Z,97365.80
2023-03-28T15:32:20.704Z,97365.31
2023-03-28T15:35:07.385Z,97355.25
2023-03-28T15:37:46.371Z,97340.39
2023-03-28T15:40:30.039Z,97345.76
2023-03-28T15:43:00.947Z,97353.35
2023-03-28T15:45:41.625Z,97364.48
2023-03-28T15:48:17.271Z,97373.78
2023-03-28T15:50:51.933Z,97382.15
2023-03-28T15:53:21.247Z,97389.20
2023-03-28T15:55:50.511Z,97394.72
2023-03-28T15:58:22.411Z,97400.35
2023-03-28T16:00:53.001Z,97410.67
2023-03-28T16:03:21.349Z,97417.43
2023-03-28T16:06:01.875Z,97427.13
2023-03-28T16:08:45.616Z,97429.58
2023-03-28T16:11:22.178Z,97440.48
2023-03-28T16:14:13.954Z,97444.77
2023-03-28T16:16:56.594Z,97450.36
2023-03-28T16:19:34.995Z,97454.80
2023-03-28T16:22:04.099Z,97460.80
2023-03-28T16:24:32.590Z,97467.77
2023-03-28T16:27:02.694Z,97472.51
2023-03-28T16:29:31.029Z,97470.73
2023-03-28T16:31:59.236Z,97478.61
2023-03-28T16:34:35.098Z,97485.80
2023-03-28T16:37:03.236Z,97504.20
2023-03-28T16:39:32.179Z,97503.44
2023-03-28T16:42:00.930Z,97527.11
2023-03-28T16:44:28.946Z,97540.91
2023-03-28T16:46:57.228Z,97559.88
2023-03-28T16:49:25.372Z,97564.87
2023-03-28T16:51:55.037Z,97561.10
2023-03-28T16:54:24.028Z,97589.42
2023-03-28T16:56:52.287Z,97597.13
2023-03-28T16:59:20.855Z,97603.95
2023-03-28T17:01:49.222Z,97594.43
2023-03-28T17:04:17.380Z,97585.57
2023-03-28T17:06:45.888Z,97593.10
2023-03-28T17:09:14.769Z,97587.64
2023-03-28T17:11:43.060Z,97593.14
2023-03-28T17:14:12.494Z,97596.27
2023-03-28T17:16:40.789Z,97599.19
2023-03-28T17:19:09.050Z,97606.98
2023-03-28T17:21:38.097Z,97602.94
2023-03-28T17:24:11.951Z,97612.30
2023-03-28T17:26:40.917Z,97614.02
2023-03-28T17:29:12.029Z,97618.49
2023-03-28T17:31:42.318Z,97619.69
2023-03-28T17:34:13.544Z,97619.13
2023-03-28T17:36:41.798Z,97626.99
2023-03-28T17:39:10.613Z,97627.80
2023-03-28T17:41:38.784Z,97631.40
2023-03-28T17:44:09.013Z,97633.70
2023-03-28T17:46:37.551Z,97642.98
2023-03-28T17:49:08.228Z,97645.98
2023-03-28T17:51:36.695Z,97651.45
2023-03-28T17:54:12.105Z,97644.43
2023-03-28T17:56:42.590Z,97642.84
2023-03-28T17:59:12.674Z,97643.40
2023-03-28T18:01:41.133Z,97642.50
2023-03-28T18:04:09.382Z,97631.98
2023-03-28T18:07:02.443Z,97634.61
2023-03-28T18:09:45.064Z,97635.83
2023-03-28T18:12:16.650Z,97634.47
2023-03-28T18:14:46.080Z,97633.61
2023-03-28T18:17:16.218Z,97636.45
2023-03-28T18:19:44.300Z,97639.16
2023-03-28T18:22:13.422Z,97646.29
2023-03-28T18:24:41.629Z,97642.85
2023-03-28T18:27:10.109Z,97646.11
2023-03-28T18:29:38.389Z,97648.59
2023-03-28T18:32:09.399Z,97645.63
2023-03-28T18:34:37.620Z,97650.33
2023-03-28T18:37:08.117Z,97645.11
2023-03-28T18:39:36.397Z,97648.70
2023-03-28T18:42:06.441Z,97651.83
2023-03-28T18:44:38.975Z,97656.98
2023-03-28T18:47:07.178Z,97662.51
2023-03-28T18:49:35.210Z,97664.00
2023-03-28T18:52:06.542Z,97669.33
2023-03-28T18:54:35.168Z,97676.89
2023-03-28T18:57:07.338Z,97673.31
2023-03-28T18:59:38.061Z,97676.61
2023-03-28T19:02:13.034Z,97679.34
2023-03-28T19:04:41.218Z,97687.06
2023-03-28T19:07:10.124Z,97687.21
2023-03-28T19:09:38.371Z,97683.52
2023-03-28T19:12:09.301Z,97687.71
2023-03-28T19:14:38.855Z,97689.70
2023-03-28T19:17:07.526Z,97694.86
2023-03-28T19:19:37.652Z,97700.36
2023-03-28T19:22:06.680Z,97696.31
2023-03-28T19:24:34.719Z,97699.20
2023-03-28T19:27:05.126Z,97704.63
2023-03-28T19:29:33.738Z,97697.54
2023-03-28T19:32:01.931Z,97694.63
2023-03-28T19:34:29.916Z,97699.13
2023-03-28T19:36:57.959Z,97701.11
2023-03-28T19:39:26.136Z,97706.39
2023-03-28T19:41:55.977Z,97708.79
2023-03-28T19:44:24.130Z,97712.36
2023-03-28T19:46:52.123Z,97707.55
2023-03-28T19:49:20.218Z,97707.52
2023-03-28T19:51:48.290Z,97710.04
2023-03-28T19:54:16.608Z,97712.83
2023-03-28T19:56:46.001Z,97711.05
2023-03-28T19:59:15.668Z,97711.40
2023-03-28T20:01:43.725Z,97716.53
2023-03-28T20:04:12.192Z,97712.39
2023-03-28T20:06:40.651Z,97719.73
2023-03-28T20:09:08.785Z,97718.52
2023-03-28T20:11:39.969Z,97713.71
2023-03-28T20:14:09.091Z,97720.09
2023-03-28T20:16:38.221Z,97718.48
2023-03-28T20:19:07.027Z,97718.38
2023-03-28T20:21:35.600Z,97721.02
2023-03-28T20:24:04.239Z,97719.44
2023-03-28T20:26:33.119Z,97718.27
2023-03-28T20:29:01.550Z,97719.04
2023-03-28T20:31:29.761Z,97719.14
2023-03-28T20:33:58.015Z,97715.46
2023-03-28T20:36:27.387Z,97720.34
2023-03-28T20:38:56.497Z,97717.16
2023-03-28T20:41:26.455Z,97720.45
2023-03-28T20:44:03.174Z,97717.67
2023-03-28T20:46:38.174Z,97720.89
2023-03-28T20:49:07.902Z,97721.30
2023-03-28T20:51:39.292Z,97726.61
2023-03-28T20:54:07.633Z,97727.42
2023-03-28T20:56:36.365Z,97731.04
2023-03-28T20:59:04.785Z,97735.34
2023-03-28T21:01:32.923Z,97739.55
2023-03-28T21:04:02.294Z,97742.02
2023-03-28T21:06:34.581Z,97743.75
2023-03-28T21:09:10.876Z,97746.50
2023-03-28T21:11:39.943Z,97741.23
2023-03-28T21:14:10.332Z,97750.29
2023-03-28T21:16:38.693Z,97744.00
2023-03-28T21:19:07.044Z,97747.60
2023-03-28T21:21:36.171Z,97747.15
2023-03-28T21:24:05.208Z,97744.27
2023-03-28T21:26:33.362Z,97747.55
2023-03-28T21:29:01.700Z,97746.95
2023-03-28T21:31:29.916Z,97753.98
2023-03-28T21:33:59.259Z,97757.23
2023-03-28T21:36:28.046Z,97766.98
2023-03-28T21:38:57.052Z,97762.80
2023-03-28T21:41:27.312Z,97763.36
2023-03-28T21:43:55.782Z,97763.64
2023-03-28T21:46:23.930Z,97763.44
2023-03-28T21:48:51.915Z,97771.96
2023-03-28T21:51:20.126Z,97765.87
2023-03-28T21:53:48.673Z,97771.22
2023-03-28T21:56:16.880Z,97769.04
2023-03-28T21:58:44.990Z,97766.27
2023-03-28T22:01:17.502Z,97766.56
2023-03-28T22:03:47.224Z,97770.63
2023-03-28T22:06:18.174Z,97771.46
2023-03-28T22:08:49.430Z,97772.34
2023-03-28T22:11:20.387Z,97774.92
2023-03-28T22:13:48.504Z,97773.70
2023-03-28T22:16:16.586Z,97775.88
2023-03-28T22:18:50.078Z,97776.36
2023-03-28T22:21:18.491Z,97779.36
2023-03-28T22:23:49.624Z,97775.86
2023-03-28T22:26:18.118Z,97780.88
2023-03-28T22:28:46.629Z,97779.02
2023-03-28T22:31:16.940Z,97789.31
2023-03-28T22:33:45.081Z,97791.36
2023-03-28T22:36:15.381Z,97799.58
2023-03-28T22:38:43.668Z,97801.49
2023-03-28T22:41:12.150Z,97811.70
2023-03-28T22:43:44.114Z,97810.98
2023-03-28T22:46:12.885Z,97822.45
2023-03-28T22:48:42.102Z,97827.77
2023-03-28T22:51:13.997Z,97831.27
2023-03-28T22:53:42.017Z,97836.14
2023-03-28T22:56:10.149Z,97835.44
2023-03-28T22:58:38.219Z,97837.73
2023-03-28T23:01:06.586Z,97836.60
2023-03-28T23:03:34.474Z,97831.41
2023-03-28T23:06:06.279Z,97831.90
2023-03-28T23:08:34.957Z,97837.00
2023-03-28T23:11:03.335Z,97837.98
2023-03-28T23:13:31.882Z,97841.91
2023-03-28T23:16:00.242Z,97847.91
2023-03-28T23:18:30.252Z,97848.73
2023-03-28T23:20:58.270Z,97848.92
2023-03-28T23:23:27.289Z,97848.76
2023-03-28T23:25:55.402Z,97845.46
2023-03-28T23:28:23.438Z,97855.79
2023-03-28T23:30:51.359Z,97858.48
2023-03-28T23:33:19.834Z,97856.70
2023-03-28T23:35:48.454Z,97854.27
2023-03-28T23:38:17.691Z,97857.42
2023-03-28T23:40:46.718Z,97855.38
2023-03-28T23:43:15.016Z,97857.34
2023-03-28T23:45:43.712Z,97853.66
2023-03-28T23:48:12.008Z,97859.25
2023-03-28T23:50:40.427Z,97852.73
2023-03-28T23:53:08.531Z,97859.33
2023-03-28T23:55:36.985Z,97854.45
2023-03-28T23:58:05.603Z,97851.84
